Time;durP1;ratioP1;P1;durP2;ratioP2;P2;SDS_P1;SDS_P2;PMS_P1;PMS_P2;Temp;Humidity;BMP_temperature;BMP_pressure;BME280_temperature;BME280_humidity;BME280_pressure;Samples;Min_cycle;Max_cycle;Signal;HPM_P1;HPM_P2
2023/02/25 00:02:10;;;;;;;12.20;9.38;;;;;;;;;;5111143;27;20141;-71
2023/02/25 00:04:36;;;;;;;12.63;10.38;;;;;;;;;;5110815;27;20110;-71
2023/02/25 00:07:02;;;;;;;34.25;19.60;;;;;;;;;;5111075;27;20039;-72
2023/02/25 00:09:28;;;;;;;21.45;14.15;;;;;;;;;;5129162;27;20039;-72
2023/02/25 00:11:54;;;;;;;28.65;16.92;;;;;;;;;;5128983;27;20031;-72
2023/02/25 00:14:20;;;;;;;29.58;17.38;;;;;;;;;;5126177;27;20506;-70
2023/02/25 00:16:48;;;;;;;34.63;20.48;;;;;;;;;;5110401;27;20030;-72
2023/02/25 00:19:14;;;;;;;17.52;12.18;;;;;;;;;;5128877;27;20034;-72
2023/02/25 00:21:40;;;;;;;16.50;12.82;;;;;;;;;;5091190;27;20031;-72
2023/02/25 00:24:06;;;;;;;23.80;14.63;;;;;;;;;;5128926;27;20027;-71
2023/02/25 00:26:32;;;;;;;30.02;16.33;;;;;;;;;;5129068;27;20119;-71
2023/02/25 00:28:57;;;;;;;18.08;11.65;;;;;;;;;;5109284;27;20134;-72
2023/02/25 00:31:24;;;;;;;27.50;17.38;;;;;;;;;;5128521;27;20050;-71
2023/02/25 00:33:51;;;;;;;19.35;12.63;;;;;;;;;;5091915;27;20044;-72
2023/02/25 00:36:19;;;;;;;19.02;11.40;;;;;;;;;;5087190;27;20578;-72
2023/02/25 00:38:48;;;;;;;27.75;16.42;;;;;;;;;;5110634;28;20028;-72
2023/02/25 00:41:15;;;;;;;34.67;20.17;;;;;;;;;;5103405;27;20030;-73
2023/02/25 00:43:43;;;;;;;29.55;18.77;;;;;;;;;;5113434;27;20044;-73
2023/02/25 00:46:11;;;;;;;21.48;13.32;;;;;;;;;;5124124;27;20042;-73
2023/02/25 00:48:38;;;;;;;32.17;18.65;;;;;;;;;;5089799;28;20134;-71
2023/02/25 00:51:08;;;;;;;23.77;15.50;;;;;;;;;;5104846;28;20103;-72
2023/02/25 00:53:34;;;;;;;28.52;14.65;;;;;;;;;;5110413;28;20036;-73
2023/02/25 00:56:00;;;;;;;17.30;12.35;;;;;;;;;;5129193;28;20084;-72
2023/02/25 00:58:26;;;;;;;22.90;14.07;;;;;;;;;;5120212;28;20047;-72
2023/02/25 01:00:52;;;;;;;31.73;18.83;;;;;;;;;;5119038;28;20039;-72
2023/02/25 01:03:18;;;;;;;19.50;12.57;;;;;;;;;;5128166;28;20040;-70
2023/02/25 01:05:48;;;;;;;28.20;18.13;;;;;;;;;;5110475;28;20530;-71
2023/02/25 01:08:15;;;;;;;19.45;12.93;;;;;;;;;;5117323;28;20066;-73
2023/02/25 01:10:41;;;;;;;24.10;16.33;;;;;;;;;;5113693;28;20087;-73
2023/02/25 01:13:07;;;;;;;25.00;13.68;;;;;;;;;;5108371;28;20553;-73
2023/02/25 01:15:33;;;;;;;20.05;12.07;;;;;;;;;;5108449;28;20071;-73
2023/02/25 01:17:59;;;;;;;35.05;21.05;;;;;;;;;;5107932;28;20499;-71
2023/02/25 01:20:25;;;;;;;24.98;13.88;;;;;;;;;;5107844;28;20562;-72
2023/02/25 01:22:51;;;;;;;10.90;8.40;;;;;;;;;;5080771;28;20062;-72
2023/02/25 01:25:17;;;;;;;21.30;14.23;;;;;;;;;;5108620;28;20084;-71
2023/02/25 01:27:43;;;;;;;30.90;18.23;;;;;;;;;;5107499;28;20521;-71
2023/02/25 01:30:11;;;;;;;24.75;16.25;;;;;;;;;;5107820;28;20031;-73
2023/02/25 01:32:37;;;;;;;36.05;20.25;;;;;;;;;;5107490;28;20058;-71
2023/02/25 01:35:03;;;;;;;25.38;15.63;;;;;;;;;;5107975;28;20031;-72
2023/02/25 01:37:29;;;;;;;19.65;13.90;;;;;;;;;;5115681;28;20027;-72
2023/02/25 01:39:55;;;;;;;29.10;17.70;;;;;;;;;;5113221;28;20526;-71
2023/02/25 01:42:22;;;;;;;24.77;16.25;;;;;;;;;;5107820;28;20050;-72
2023/02/25 01:45:07;;;;;;;22.13;14.45;;;;;;;;;;5111699;27;20499;-72
2023/02/25 01:47:34;;;;;;;21.38;14.18;;;;;;;;;;5132032;27;22549;-71
2023/02/25 01:50:01;;;;;;;19.77;12.40;;;;;;;;;;5114056;27;20028;-72
2023/02/25 01:52:28;;;;;;;32.60;19.85;;;;;;;;;;5111360;28;20031;-71
2023/02/25 01:54:54;;;;;;;20.13;11.95;;;;;;;;;;5115727;27;20053;-71
2023/02/25 01:57:20;;;;;;;25.15;16.80;;;;;;;;;;5096441;27;20034;-71
2023/02/25 01:59:47;;;;;;;23.33;14.07;;;;;;;;;;5094746;28;20035;-71
2023/02/25 02:02:14;;;;;;;32.08;17.73;;;;;;;;;;5093037;28;20130;-71
2023/02/25 02:04:40;;;;;;;27.52;17.48;;;;;;;;;;5124652;27;20035;-72
2023/02/25 02:07:06;;;;;;;21.75;13.98;;;;;;;;;;5092855;28;20043;-71
2023/02/25 02:09:32;;;;;;;29.40;17.85;;;;;;;;;;5129303;27;20464;-72
2023/02/25 02:12:00;;;;;;;25.35;15.27;;;;;;;;;;5096068;27;20450;-72
2023/02/25 02:14:27;;;;;;;24.55;16.35;;;;;;;;;;5117565;27;20043;-73
2023/02/25 02:16:54;;;;;;;28.88;18.50;;;;;;;;;;5092717;28;20031;-72
2023/02/25 02:19:23;;;;;;;13.55;10.02;;;;;;;;;;5110736;28;20044;-73
2023/02/25 02:21:59;;;;;;;22.33;14.30;;;;;;;;;;5105236;27;20035;-72
2023/02/25 02:24:43;;;;;;;19.35;12.73;;;;;;;;;;5099714;27;20118;-72
2023/02/25 02:27:32;;;;;;;23.25;14.50;;;;;;;;;;5114132;27;20165;-72
2023/02/25 02:30:04;;;;;;;26.45;16.90;;;;;;;;;;5092689;27;20263;-72
2023/02/25 02:32:45;;;;;;;36.80;21.05;;;;;;;;;;5105207;28;20472;-73
2023/02/25 02:35:30;;;;;;;33.00;20.75;;;;;;;;;;5110721;28;20059;-73
2023/02/25 02:37:59;;;;;;;15.85;11.40;;;;;;;;;;5110599;28;20031;-73
2023/02/25 02:40:29;;;;;;;28.65;18.15;;;;;;;;;;5078549;27;20047;-74
2023/02/25 02:43:00;;;;;;;27.40;15.45;;;;;;;;;;5095325;27;20038;-72
2023/02/25 02:45:27;;;;;;;21.98;16.00;;;;;;;;;;5083283;27;20087;-74
2023/02/25 02:47:56;;;;;;;22.38;13.02;;;;;;;;;;5081995;27;20040;-73
2023/02/25 02:50:23;;;;;;;24.13;15.57;;;;;;;;;;5122715;27;20059;-74
2023/02/25 02:52:50;;;;;;;19.05;14.18;;;;;;;;;;5092109;28;20062;-72
2023/02/25 02:55:21;;;;;;;24.58;16.13;;;;;;;;;;5075607;28;20073;-73
2023/02/25 02:58:00;;;;;;;28.52;18.27;;;;;;;;;;5090879;27;20041;-73
2023/02/25 03:00:28;;;;;;;26.30;16.38;;;;;;;;;;5078574;27;20035;-74
2023/02/25 03:02:57;;;;;;;15.45;12.90;;;;;;;;;;5095158;27;20034;-72
2023/02/25 03:05:25;;;;;;;26.67;16.38;;;;;;;;;;5095222;27;20046;-73
2023/02/25 03:08:11;;;;;;;13.65;11.35;;;;;;;;;;5106906;28;20035;-71
2023/02/25 03:10:37;;;;;;;22.90;15.82;;;;;;;;;;5091043;27;20055;-72
2023/02/25 03:13:04;;;;;;;20.40;14.45;;;;;;;;;;5099340;27;20027;-72
2023/02/25 03:15:30;;;;;;;27.52;19.58;;;;;;;;;;5111091;27;20087;-72
2023/02/25 03:17:56;;;;;;;29.95;18.70;;;;;;;;;;5082205;27;20499;-72
2023/02/25 03:20:27;;;;;;;24.88;14.45;;;;;;;;;;5110496;27;20084;-72
2023/02/25 03:22:53;;;;;;;27.80;17.77;;;;;;;;;;5100142;27;20075;-72
2023/02/25 03:25:19;;;;;;;28.25;18.95;;;;;;;;;;5109916;27;20031;-73
2023/02/25 03:27:47;;;;;;;24.70;15.25;;;;;;;;;;5100015;27;20068;-72
2023/02/25 03:30:20;;;;;;;24.33;15.77;;;;;;;;;;5092350;27;20069;-72
2023/02/25 03:32:48;;;;;;;18.10;13.32;;;;;;;;;;5100448;27;20055;-72
2023/02/25 03:35:14;;;;;;;21.17;14.93;;;;;;;;;;5111342;27;20031;-72
2023/02/25 03:37:41;;;;;;;14.80;10.30;;;;;;;;;;5119178;27;20152;-73
2023/02/25 03:40:12;;;;;;;19.10;13.65;;;;;;;;;;5094414;27;20601;-73
2023/02/25 03:42:38;;;;;;;;;;;;;;;;;;5111346;27;20517;-74
2023/02/25 03:45:05;;;;;;;25.88;15.52;;;;;;;;;;5111943;27;19958;-72
2023/02/25 03:47:31;;;;;;;24.02;15.73;;;;;;;;;;5101671;27;20518;-74
2023/02/25 03:50:08;;;;;;;25.85;15.88;;;;;;;;;;5093745;27;20546;-73
2023/02/25 03:52:34;;;;;;;25.65;15.00;;;;;;;;;;5082443;28;20032;-72
2023/02/25 03:55:06;;;;;;;21.83;15.07;;;;;;;;;;5110686;27;20042;-73
2023/02/25 03:57:36;;;;;;;25.42;18.00;;;;;;;;;;5098346;28;20039;-73
2023/02/25 04:00:14;;;;;;;23.13;14.98;;;;;;;;;;5097647;27;20023;-73
2023/02/25 04:02:40;;;;;;;17.67;13.73;;;;;;;;;;5109250;27;20054;-73
2023/02/25 04:05:07;;;;;;;28.17;17.38;;;;;;;;;;5090622;28;20076;-73
2023/02/25 04:07:33;;;;;;;26.40;16.70;;;;;;;;;;5108532;28;20042;-73
2023/02/25 04:09:59;;;;;;;23.65;14.27;;;;;;;;;;5108472;28;20028;-73
2023/02/25 04:12:26;;;;;;;24.13;14.23;;;;;;;;;;5085175;28;20032;-71
2023/02/25 04:14:52;;;;;;;20.23;13.07;;;;;;;;;;5098662;27;20039;-73
2023/02/25 04:17:19;;;;;;;26.10;17.02;;;;;;;;;;5109018;27;20110;-74
2023/02/25 04:19:45;;;;;;;30.15;18.38;;;;;;;;;;5108187;28;20070;-74
2023/02/25 04:22:11;;;;;;;26.55;15.40;;;;;;;;;;5103981;27;20070;-74
2023/02/25 04:24:37;;;;;;;26.08;15.82;;;;;;;;;;5116905;27;20051;-74
2023/02/25 04:27:03;;;;;;;19.63;15.02;;;;;;;;;;5108834;27;20034;-73
2023/02/25 04:29:29;;;;;;;19.83;14.10;;;;;;;;;;5108295;28;20047;-72
2023/02/25 04:31:55;;;;;;;22.90;14.00;;;;;;;;;;5109299;27;20109;-73
2023/02/25 04:34:21;;;;;;;23.60;15.18;;;;;;;;;;5106976;28;20443;-74
2023/02/25 04:36:47;;;;;;;17.20;12.27;;;;;;;;;;5123384;27;20053;-74
2023/02/25 04:39:14;;;;;;;27.90;17.80;;;;;;;;;;5102354;28;20051;-73
2023/02/25 04:41:40;;;;;;;25.38;14.77;;;;;;;;;;5108015;28;20164;-74
2023/02/25 04:44:06;;;;;;;26.77;16.02;;;;;;;;;;5108317;28;20031;-74
2023/02/25 04:46:32;;;;;;;21.58;14.52;;;;;;;;;;5108184;28;20036;-74
2023/02/25 04:48:58;;;;;;;23.30;13.15;;;;;;;;;;5097896;28;20121;-74
2023/02/25 04:51:24;;;;;;;25.52;19.23;;;;;;;;;;5127285;28;20176;-73
2023/02/25 04:53:50;;;;;;;20.25;14.30;;;;;;;;;;5098603;28;20627;-73
2023/02/25 04:56:16;;;;;;;26.27;18.02;;;;;;;;;;5126652;28;20035;-72
2023/02/25 04:58:43;;;;;;;17.42;13.10;;;;;;;;;;5108025;28;20404;-72
2023/02/25 05:01:09;;;;;;;23.00;17.13;;;;;;;;;;5122031;28;20404;-72
2023/02/25 05:03:35;;;;;;;18.42;13.73;;;;;;;;;;5107828;28;20787;-72
2023/02/25 05:06:01;;;;;;;17.83;13.02;;;;;;;;;;5124190;28;20521;-73
2023/02/25 05:08:28;;;;;;;23.05;16.90;;;;;;;;;;5128135;28;20092;-72
2023/02/25 05:10:54;;;;;;;24.75;18.10;;;;;;;;;;5114379;28;20039;-72
2023/02/25 05:13:20;;;;;;;21.85;13.77;;;;;;;;;;5128416;28;20527;-72
2023/02/25 05:15:46;;;;;;;16.58;11.23;;;;;;;;;;5093600;28;20058;-73
2023/02/25 05:18:11;;;;;;;19.05;14.23;;;;;;;;;;5073512;28;20032;-74
2023/02/25 05:20:41;;;;;;;18.40;13.07;;;;;;;;;;5114148;27;20142;-72
2023/02/25 05:23:07;;;;;;;17.60;12.75;;;;;;;;;;5104315;28;20113;-73
2023/02/25 05:25:33;;;;;;;20.65;15.05;;;;;;;;;;5110767;27;20034;-73
2023/02/25 05:27:59;;;;;;;24.05;15.50;;;;;;;;;;5113634;27;20051;-73
2023/02/25 05:30:26;;;;;;;20.08;15.35;;;;;;;;;;5096755;28;20085;-71
2023/02/25 05:32:52;;;;;;;23.20;14.82;;;;;;;;;;5111545;28;20121;-72
2023/02/25 05:35:18;;;;;;;19.35;14.30;;;;;;;;;;5110769;27;20062;-72
2023/02/25 05:37:44;;;;;;;21.77;14.50;;;;;;;;;;5110238;28;20031;-72
2023/02/25 05:40:12;;;;;;;21.42;16.98;;;;;;;;;;5114981;27;20442;-72
2023/02/25 05:42:38;;;;;;;17.60;11.85;;;;;;;;;;5120905;27;20117;-70
2023/02/25 05:45:08;;;;;;;26.77;17.75;;;;;;;;;;5112602;27;20064;-71
2023/02/25 05:47:34;;;;;;;28.63;18.85;;;;;;;;;;5122883;27;20035;-70
2023/02/25 05:50:00;;;;;;;26.17;16.83;;;;;;;;;;5118089;27;20058;-70
2023/02/25 05:52:27;;;;;;;22.52;14.68;;;;;;;;;;5120247;27;20039;-71
2023/02/25 05:54:52;;;;;;;16.05;12.18;;;;;;;;;;5102282;27;20404;-71
2023/02/25 05:57:18;;;;;;;25.88;17.75;;;;;;;;;;5086002;27;20396;-70
2023/02/25 05:59:45;;;;;;;20.75;14.95;;;;;;;;;;5104150;27;20046;-70
2023/02/25 06:02:11;;;;;;;23.58;12.98;;;;;;;;;;5107348;27;20131;-70
2023/02/25 06:04:36;;;;;;;21.85;15.43;;;;;;;;;;5121940;27;20537;-69
2023/02/25 06:07:03;;;;;;;20.40;15.23;;;;;;;;;;5108289;27;20039;-69
2023/02/25 06:09:29;;;;;;;19.67;14.18;;;;;;;;;;5109418;27;20142;-70
2023/02/25 06:11:55;;;;;;;24.27;16.95;;;;;;;;;;5123228;27;20024;-70
2023/02/25 06:14:21;;;;;;;21.25;15.10;;;;;;;;;;5110509;27;20698;-70
2023/02/25 06:16:49;;;;;;;21.45;16.35;;;;;;;;;;5108848;27;20084;-70
2023/02/25 06:19:18;;;;;;;19.77;14.68;;;;;;;;;;5110105;28;20043;-71
2023/02/25 06:21:43;;;;;;;20.10;16.70;;;;;;;;;;5109867;28;20450;-70
2023/02/25 06:24:09;;;;;;;25.90;16.65;;;;;;;;;;5115707;27;20037;-71
2023/02/25 06:26:40;;;;;;;13.75;11.13;;;;;;;;;;5106998;27;20787;-71
2023/02/25 06:29:07;;;;;;;20.13;16.50;;;;;;;;;;5104672;28;20554;-72
2023/02/25 06:31:33;;;;;;;10.82;9.35;;;;;;;;;;5111378;27;20537;-71
2023/02/25 06:33:59;;;;;;;12.57;11.15;;;;;;;;;;5108664;27;20671;-73
2023/02/25 06:36:25;;;;;;;13.25;11.93;;;;;;;;;;5124826;27;20057;-72
2023/02/25 06:38:51;;;;;;;14.02;12.00;;;;;;;;;;5116957;27;20077;-72
2023/02/25 06:41:18;;;;;;;12.65;11.50;;;;;;;;;;5094891;28;20039;-72
2023/02/25 06:43:44;;;;;;;12.82;11.52;;;;;;;;;;5104297;27;20070;-72
2023/02/25 06:46:11;;;;;;;15.35;12.70;;;;;;;;;;5106526;28;20031;-72
2023/02/25 06:48:37;;;;;;;13.30;12.00;;;;;;;;;;5104278;27;20050;-70
2023/02/25 06:51:07;;;;;;;14.65;12.85;;;;;;;;;;5108972;27;20031;-72
2023/02/25 06:53:40;;;;;;;14.85;13.32;;;;;;;;;;5108367;27;20503;-73
2023/02/25 06:56:10;;;;;;;13.25;11.65;;;;;;;;;;5107945;28;20040;-73
2023/02/25 06:58:36;;;;;;;13.90;12.55;;;;;;;;;;5107668;28;20380;-73
2023/02/25 07:01:06;;;;;;;14.80;10.20;;;;;;;;;;5103642;27;20065;-73
2023/02/25 07:03:32;;;;;;;11.85;10.75;;;;;;;;;;5090190;28;20097;-74
2023/02/25 07:05:58;;;;;;;13.93;11.48;;;;;;;;;;5110417;27;20038;-72
2023/02/25 07:08:24;;;;;;;15.25;13.80;;;;;;;;;;5119804;27;20052;-73
2023/02/25 07:10:50;;;;;;;12.05;10.80;;;;;;;;;;5112027;27;20063;-73
2023/02/25 07:13:16;;;;;;;12.45;11.20;;;;;;;;;;5132616;27;20047;-73
2023/02/25 07:15:42;;;;;;;15.00;12.38;;;;;;;;;;5118591;27;20083;-73
2023/02/25 07:18:08;;;;;;;13.27;11.80;;;;;;;;;;5123943;27;20045;-73
2023/02/25 07:20:34;;;;;;;10.25;8.93;;;;;;;;;;5120585;27;20110;-72
2023/02/25 07:23:03;;;;;;;11.15;8.63;;;;;;;;;;5103216;27;20123;-73
2023/02/25 07:25:29;;;;;;;11.50;10.38;;;;;;;;;;5129009;27;20031;-73
2023/02/25 07:27:55;;;;;;;11.05;9.95;;;;;;;;;;5129171;27;20506;-73
2023/02/25 07:30:21;;;;;;;14.00;12.57;;;;;;;;;;5120378;27;20061;-73
2023/02/25 07:32:46;;;;;;;10.60;9.60;;;;;;;;;;5115803;27;20628;-72
2023/02/25 07:35:12;;;;;;;11.85;10.48;;;;;;;;;;5091319;27;20038;-73
2023/02/25 07:37:38;;;;;;;20.92;12.07;;;;;;;;;;5111120;27;20035;-74
2023/02/25 07:40:17;;;;;;;9.43;8.57;;;;;;;;;;5108366;28;20035;-74
2023/02/25 07:42:42;;;;;;;14.00;10.80;;;;;;;;;;5107908;28;20574;-75
2023/02/25 07:45:10;;;;;;;13.68;9.77;;;;;;;;;;5089768;27;20050;-75
2023/02/25 07:47:36;;;;;;;11.40;10.35;;;;;;;;;;5106519;28;20059;-76
2023/02/25 07:50:03;;;;;;;15.43;10.85;;;;;;;;;;5105013;27;20031;-73
2023/02/25 07:52:29;;;;;;;9.27;8.35;;;;;;;;;;5128488;27;20034;-74
2023/02/25 07:54:55;;;;;;;12.35;11.25;;;;;;;;;;5112853;27;20110;-73
2023/02/25 07:57:22;;;;;;;7.15;6.50;;;;;;;;;;5119942;27;20042;-73
2023/02/25 07:59:48;;;;;;;13.02;11.60;;;;;;;;;;5109925;27;20557;-73
2023/02/25 08:02:14;;;;;;;15.40;8.35;;;;;;;;;;5075569;28;20631;-72
2023/02/25 08:04:40;;;;;;;9.15;8.27;;;;;;;;;;5110512;27;20036;-72
2023/02/25 08:07:06;;;;;;;12.68;9.43;;;;;;;;;;5115487;27;20027;-72
2023/02/25 08:09:32;;;;;;;8.98;7.97;;;;;;;;;;5091428;27;20038;-72
2023/02/25 08:11:58;;;;;;;7.85;7.20;;;;;;;;;;5086416;27;20035;-72
2023/02/25 08:14:24;;;;;;;9.75;8.95;;;;;;;;;;5114482;27;20038;-72
2023/02/25 08:16:49;;;;;;;11.73;10.70;;;;;;;;;;5128861;27;20023;-72
2023/02/25 08:19:15;;;;;;;11.20;10.20;;;;;;;;;;5110708;27;20035;-72
2023/02/25 08:21:41;;;;;;;10.90;9.85;;;;;;;;;;5116297;27;20407;-72
2023/02/25 08:24:07;;;;;;;11.23;10.15;;;;;;;;;;5080006;27;20027;-73
2023/02/25 08:26:34;;;;;;;11.70;10.55;;;;;;;;;;5115325;27;20039;-73
2023/02/25 08:28:59;;;;;;;15.50;10.70;;;;;;;;;;5116513;27;20418;-71
2023/02/25 08:31:25;;;;;;;8.73;7.90;;;;;;;;;;5109941;27;20044;-71
2023/02/25 08:33:52;;;;;;;12.70;10.45;;;;;;;;;;5112932;27;20027;-71
2023/02/25 08:36:19;;;;;;;11.82;10.63;;;;;;;;;;5108081;27;20071;-72
2023/02/25 08:38:45;;;;;;;10.65;9.65;;;;;;;;;;5125924;27;20043;-71
2023/02/25 08:41:11;;;;;;;14.20;11.68;;;;;;;;;;5090432;28;20085;-71
2023/02/25 08:43:37;;;;;;;11.93;10.23;;;;;;;;;;5102294;28;20087;-73
2023/02/25 08:46:05;;;;;;;12.75;11.55;;;;;;;;;;5097965;27;20134;-70
2023/02/25 08:48:31;;;;;;;13.50;12.10;;;;;;;;;;5105003;28;20091;-70
2023/02/25 08:51:01;;;;;;;10.80;9.75;;;;;;;;;;5114225;27;20821;-70
2023/02/25 08:53:26;;;;;;;8.70;7.85;;;;;;;;;;5103687;28;20084;-70
2023/02/25 08:55:53;;;;;;;14.07;11.57;;;;;;;;;;5111657;28;20042;-70
2023/02/25 08:58:19;;;;;;;10.65;9.60;;;;;;;;;;5112704;28;20118;-70
2023/02/25 09:00:48;;;;;;;10.35;9.30;;;;;;;;;;5111692;28;20507;-72
2023/02/25 09:03:14;;;;;;;12.07;10.07;;;;;;;;;;5112792;28;20420;-71
2023/02/25 09:05:40;;;;;;;11.18;9.93;;;;;;;;;;5118895;28;20039;-70
2023/02/25 09:08:06;;;;;;;11.40;10.40;;;;;;;;;;5122857;28;20096;-71
2023/02/25 09:10:34;;;;;;;10.35;9.45;;;;;;;;;;5107958;28;20514;-71
2023/02/25 09:13:00;;;;;;;10.80;9.82;;;;;;;;;;5107031;28;20027;-70
2023/02/25 09:15:26;;;;;;;10.70;9.70;;;;;;;;;;5084516;28;20084;-71
2023/02/25 09:17:51;;;;;;;9.25;8.45;;;;;;;;;;5109021;28;20119;-71
2023/02/25 09:20:17;;;;;;;8.95;8.13;;;;;;;;;;5109935;28;20069;-70
2023/02/25 09:22:43;;;;;;;9.68;8.70;;;;;;;;;;5111653;28;20080;-72
2023/02/25 09:25:09;;;;;;;10.32;9.43;;;;;;;;;;5102799;28;20084;-72
2023/02/25 09:27:35;;;;;;;10.75;9.90;;;;;;;;;;5103510;28;20038;-73
2023/02/25 09:30:01;;;;;;;11.40;10.25;;;;;;;;;;5111740;28;20035;-73
2023/02/25 09:32:30;;;;;;;11.57;10.38;;;;;;;;;;5110238;28;20051;-73
2023/02/25 09:34:56;;;;;;;11.32;7.28;;;;;;;;;;5113337;28;20080;-73
2023/02/25 09:37:24;;;;;;;10.43;9.50;;;;;;;;;;5096986;28;20544;-72
2023/02/25 09:39:50;;;;;;;8.05;7.38;;;;;;;;;;5118461;28;20073;-72
2023/02/25 09:42:23;;;;;;;8.65;7.85;;;;;;;;;;5071662;28;20027;-71
2023/02/25 09:44:52;;;;;;;9.52;8.25;;;;;;;;;;5099569;28;20092;-71
2023/02/25 09:47:30;;;;;;;8.52;7.82;;;;;;;;;;5108409;28;20027;-72
2023/02/25 09:49:57;;;;;;;9.75;8.63;;;;;;;;;;5108475;28;20147;-73
2023/02/25 09:52:28;;;;;;;8.82;7.93;;;;;;;;;;5104359;28;20023;-73
2023/02/25 09:54:55;;;;;;;8.07;7.47;;;;;;;;;;5089448;28;20023;-73
2023/02/25 09:57:24;;;;;;;6.20;5.63;;;;;;;;;;5110918;28;20028;-72
2023/02/25 09:59:52;;;;;;;8.50;6.53;;;;;;;;;;5108026;28;20027;-72
2023/02/25 10:02:26;;;;;;;6.35;5.65;;;;;;;;;;5108824;28;20047;-73
2023/02/25 10:04:55;;;;;;;8.70;7.97;;;;;;;;;;5098261;27;20035;-73
2023/02/25 10:07:23;;;;;;;9.63;8.73;;;;;;;;;;5118638;27;20031;-73
2023/02/25 10:09:54;;;;;;;7.85;7.15;;;;;;;;;;5080293;28;20051;-72
2023/02/25 10:12:26;;;;;;;8.10;6.88;;;;;;;;;;5093846;27;20031;-73
2023/02/25 10:15:02;;;;;;;5.63;5.13;;;;;;;;;;5111762;27;20143;-72
2023/02/25 10:17:42;;;;;;;7.65;6.75;;;;;;;;;;5094156;28;20557;-73
2023/02/25 10:20:23;;;;;;;6.05;5.55;;;;;;;;;;5089300;27;20118;-73
2023/02/25 10:22:55;;;;;;;8.50;7.68;;;;;;;;;;5111419;28;20087;-73
2023/02/25 10:25:23;;;;;;;9.93;9.13;;;;;;;;;;5125483;27;20042;-73
2023/02/25 10:27:50;;;;;;;7.30;6.60;;;;;;;;;;5093333;28;20042;-73
2023/02/25 10:30:22;;;;;;;7.13;6.57;;;;;;;;;;5127836;27;20578;-73
2023/02/25 10:32:48;;;;;;;7.15;6.45;;;;;;;;;;5103934;28;20054;-72
2023/02/25 10:35:24;;;;;;;7.28;6.75;;;;;;;;;;5111499;28;20040;-72
2023/02/25 10:37:50;;;;;;;6.85;6.32;;;;;;;;;;5104186;27;20506;-72
2023/02/25 10:40:17;;;;;;;7.30;6.55;;;;;;;;;;5114161;27;20069;-72
2023/02/25 10:42:44;;;;;;;7.75;7.03;;;;;;;;;;5111551;27;20046;-72
2023/02/25 10:45:10;;;;;;;8.02;7.20;;;;;;;;;;5111197;28;20110;-72
2023/02/25 10:47:38;;;;;;;7.57;6.95;;;;;;;;;;5111409;28;20028;-71
2023/02/25 10:50:09;;;;;;;8.07;7.35;;;;;;;;;;5110991;28;20027;-72
2023/02/25 10:52:35;;;;;;;7.15;6.65;;;;;;;;;;5111259;28;20564;-72
2023/02/25 10:55:01;;;;;;;6.55;6.05;;;;;;;;;;5112084;27;20031;-72
2023/02/25 10:57:33;;;;;;;7.10;6.38;;;;;;;;;;5131764;27;20504;-72
2023/02/25 11:00:12;;;;;;;6.60;6.10;;;;;;;;;;5111036;28;20491;-72
2023/02/25 11:02:41;;;;;;;6.03;5.53;;;;;;;;;;5112109;27;20070;-72
2023/02/25 11:05:27;;;;;;;7.05;5.18;;;;;;;;;;5122601;27;20065;-72
2023/02/25 11:07:54;;;;;;;6.13;5.72;;;;;;;;;;5124346;27;20519;-72
2023/02/25 11:10:20;;;;;;;6.10;5.43;;;;;;;;;;5110817;28;20074;-72
2023/02/25 11:12:54;;;;;;;5.70;5.32;;;;;;;;;;5111437;27;20035;-72
2023/02/25 11:15:22;;;;;;;6.28;5.50;;;;;;;;;;5118858;27;20040;-72
2023/02/25 11:17:49;;;;;;;6.03;5.63;;;;;;;;;;5115959;27;20027;-72
2023/02/25 11:20:22;;;;;;;7.35;6.70;;;;;;;;;;5117947;27;20037;-72
2023/02/25 11:22:50;;;;;;;7.38;6.10;;;;;;;;;;5112471;27;20084;-71
2023/02/25 11:25:17;;;;;;;7.18;6.57;;;;;;;;;;5092778;27;20042;-73
2023/02/25 11:27:43;;;;;;;6.30;5.80;;;;;;;;;;5130917;27;20675;-73
2023/02/25 11:30:12;;;;;;;5.95;5.55;;;;;;;;;;5130724;27;20063;-72
2023/02/25 11:32:39;;;;;;;5.57;5.18;;;;;;;;;;5100910;28;20056;-72
2023/02/25 11:35:09;;;;;;;6.22;5.72;;;;;;;;;;5072920;28;20510;-72
2023/02/25 11:37:39;;;;;;;5.97;5.55;;;;;;;;;;5100928;28;20219;-73
2023/02/25 11:40:22;;;;;;;5.85;5.45;;;;;;;;;;5085142;28;20043;-72
2023/02/25 11:43:11;;;;;;;5.78;5.38;;;;;;;;;;5101182;28;20694;-71
2023/02/25 11:45:45;;;;;;;6.90;6.30;;;;;;;;;;5090518;28;20580;-72
2023/02/25 11:48:15;;;;;;;7.82;6.28;;;;;;;;;;5092007;28;20044;-72
2023/02/25 11:50:57;;;;;;;4.53;4.25;;;;;;;;;;5098566;28;20028;-72
2023/02/25 11:53:28;;;;;;;5.57;5.18;;;;;;;;;;5094633;28;20141;-72
2023/02/25 11:55:57;;;;;;;6.85;6.32;;;;;;;;;;5109634;28;20034;-72
2023/02/25 11:58:30;;;;;;;6.45;5.85;;;;;;;;;;5094993;28;20058;-72
2023/02/25 12:01:00;;;;;;;5.75;5.30;;;;;;;;;;5108956;28;20086;-73
2023/02/25 12:03:52;;;;;;;5.35;5.05;;;;;;;;;;5088445;28;20032;-73
2023/02/25 12:06:21;;;;;;;5.60;5.20;;;;;;;;;;5084511;28;20072;-72
2023/02/25 12:08:55;;;;;;;7.63;7.03;;;;;;;;;;5101277;28;20040;-73
2023/02/25 12:11:24;;;;;;;7.30;6.70;;;;;;;;;;5101571;28;20040;-72
2023/02/25 12:14:06;;;;;;;8.02;7.32;;;;;;;;;;5089112;28;20149;-73
2023/02/25 12:16:31;;;;;;;;;;;;;;;;;;5089971;28;20063;-73
2023/02/25 12:19:11;;;;;;;4.88;4.57;;;;;;;;;;5089149;28;20395;-73
2023/02/25 12:21:42;;;;;;;6.45;5.95;;;;;;;;;;5088353;28;20043;-73
2023/02/25 12:24:26;;;;;;;7.60;7.00;;;;;;;;;;5093921;28;20050;-73
2023/02/25 12:26:57;;;;;;;6.43;5.90;;;;;;;;;;5111058;28;20093;-73
2023/02/25 12:29:33;;;;;;;6.47;5.97;;;;;;;;;;5103267;28;20048;-73
2023/02/25 12:32:11;;;;;;;7.20;6.50;;;;;;;;;;5103401;28;20133;-72
2023/02/25 12:34:49;;;;;;;7.53;7.03;;;;;;;;;;5112614;28;20050;-72
2023/02/25 12:37:19;;;;;;;5.75;5.00;;;;;;;;;;5109802;28;20028;-73
2023/02/25 12:39:49;;;;;;;7.30;6.70;;;;;;;;;;5092401;27;20035;-72
2023/02/25 12:42:35;;;;;;;7.30;6.70;;;;;;;;;;5129651;27;20126;-72
2023/02/25 12:45:13;;;;;;;6.05;5.55;;;;;;;;;;5072557;28;20027;-72
2023/02/25 12:47:45;;;;;;;6.55;6.05;;;;;;;;;;5109311;28;20035;-71
2023/02/25 12:50:14;;;;;;;7.53;5.10;;;;;;;;;;5090480;28;20035;-72
2023/02/25 12:52:43;;;;;;;6.60;6.15;;;;;;;;;;5109996;28;20035;-71
2023/02/25 12:55:24;;;;;;;6.15;5.70;;;;;;;;;;5129400;28;20114;-72
2023/02/25 12:58:09;;;;;;;6.85;6.35;;;;;;;;;;5095758;28;20035;-72
2023/02/25 13:00:39;;;;;;;6.70;6.20;;;;;;;;;;5102220;28;20092;-72
2023/02/25 13:03:31;;;;;;;5.15;4.80;;;;;;;;;;5115404;28;20042;-71
2023/02/25 13:06:00;;;;;;;11.02;6.18;;;;;;;;;;5088381;28;20035;-71
2023/02/25 13:08:39;;;;;;;7.88;7.13;;;;;;;;;;5109107;28;20054;-72
2023/02/25 13:11:28;;;;;;;9.65;8.88;;;;;;;;;;5122694;28;20035;-72
2023/02/25 13:14:12;;;;;;;8.98;6.93;;;;;;;;;;5082691;28;20043;-72
2023/02/25 13:16:41;;;;;;;8.07;7.47;;;;;;;;;;5119018;28;20043;-72
2023/02/25 13:19:26;;;;;;;8.63;7.75;;;;;;;;;;5093809;28;20080;-72
2023/02/25 13:21:55;;;;;;;9.43;8.73;;;;;;;;;;5122058;28;20126;-72
2023/02/25 13:24:26;;;;;;;5.57;5.18;;;;;;;;;;5108864;28;20423;-72
2023/02/25 13:26:52;;;;;;;8.32;7.57;;;;;;;;;;5091013;28;20039;-72
2023/02/25 13:29:24;;;;;;;6.65;6.15;;;;;;;;;;5121177;28;20190;-72
2023/02/25 13:31:54;;;;;;;8.93;8.23;;;;;;;;;;5110295;28;20051;-72
2023/02/25 13:34:20;;;;;;;8.35;7.65;;;;;;;;;;5101873;28;20071;-72
2023/02/25 13:37:05;;;;;;;8.38;6.85;;;;;;;;;;5090189;28;20489;-72
2023/02/25 13:39:46;;;;;;;9.57;8.60;;;;;;;;;;5109878;28;20043;-72
2023/02/25 13:42:26;;;;;;;9.18;7.40;;;;;;;;;;5119183;27;20031;-72
2023/02/25 13:45:08;;;;;;;6.15;5.65;;;;;;;;;;5099006;28;20396;-72
2023/02/25 13:47:47;;;;;;;8.32;7.30;;;;;;;;;;5112350;28;20391;-71
2023/02/25 13:50:13;;;;;;;6.20;5.70;;;;;;;;;;5092894;28;20051;-71
2023/02/25 13:52:58;;;;;;;6.85;6.25;;;;;;;;;;5112721;28;20039;-72
2023/02/25 13:55:59;;;;;;;5.50;5.18;;;;;;;;;;5102803;27;20035;-72
2023/02/25 13:58:46;;;;;;;4.07;3.88;;;;;;;;;;5048072;28;20036;-72
2023/02/25 14:01:35;;;;;;;6.90;5.97;;;;;;;;;;5080341;27;20055;-72
2023/02/25 14:04:07;;;;;;;6.95;6.30;;;;;;;;;;5115573;27;20415;-72
2023/02/25 14:06:52;;;;;;;6.30;5.90;;;;;;;;;;5098269;27;20130;-72
2023/02/25 14:09:28;;;;;;;5.65;5.15;;;;;;;;;;5122172;27;20047;-72
2023/02/25 14:11:54;;;;;;;6.95;5.75;;;;;;;;;;5128125;27;20512;-72
2023/02/25 14:14:38;;;;;;;6.68;6.07;;;;;;;;;;5131389;27;20130;-71
2023/02/25 14:17:13;;;;;;;5.70;5.28;;;;;;;;;;5128264;27;20398;-72
2023/02/25 14:19:49;;;;;;;5.10;4.72;;;;;;;;;;5122248;27;20035;-72
2023/02/25 14:22:35;;;;;;;5.95;5.47;;;;;;;;;;5093756;28;20036;-72
2023/02/25 14:25:07;;;;;;;5.30;4.82;;;;;;;;;;5095324;28;20169;-71
2023/02/25 14:27:47;;;;;;;6.43;5.93;;;;;;;;;;5099801;27;20535;-71
2023/02/25 14:30:25;;;;;;;5.80;5.38;;;;;;;;;;5097148;27;20051;-71
2023/02/25 14:32:58;;;;;;;8.38;7.57;;;;;;;;;;5128116;27;20047;-71
2023/02/25 14:35:56;;;;;;;6.68;6.18;;;;;;;;;;5126455;27;20038;-71
2023/02/25 14:38:26;;;;;;;7.63;6.78;;;;;;;;;;5069188;28;20097;-72
2023/02/25 14:41:01;;;;;;;6.93;6.07;;;;;;;;;;5113094;27;20029;-71
2023/02/25 14:43:33;;;;;;;7.40;6.72;;;;;;;;;;5099890;27;20097;-72